Flight Track Log - Related Links

Times and Time Zones

All times are in EDT time to prevent confusion due to time zone crossing. See the DAL9934 flight status page for this flight to view local times or setup timezone preferences in your user account.

Time Position Orientation Groundspeed Altitude Reporting Facility
EDT Latitude Longitude Course Direction KTS MPH feet Rate Location/Type
Wed 02:59:25 AM 53.2833 -113.6333 90° East 130 150 3,500  Level Edmonton Center
Wed 03:00:25 AM 53.2167 -113.6833 204° Southwest 230 265 5,600 2,750 Climbing Edmonton Center
Wed 03:01:25 AM 53.1833 -113.6167 130° Southeast 290 334 9,000 3,000 Climbing Edmonton Center
Wed 03:02:25 AM 53.1333 -113.4667 119° Southeast 340 391 11,600 2,600 Climbing Edmonton Center
Wed 03:03:25 AM 53.0833 -113.3167 119° Southeast 390 449 14,200 2,750 Climbing Edmonton Center
Wed 03:04:25 AM 53.0333 -113.1667 119° Southeast 400 460 17,100 2,950 Climbing Edmonton Center
Wed 03:05:00 AM 53.0167 -112.4386 90° East  Level FlightAware Approximate
Wed 03:05:25 AM 52.9667 -112.9500 117° Southeast 430 495 20,100  Level Edmonton Center
Wed 03:06:25 AM 52.9167 -112.8000 119° Southeast 440 506 22,400 2,200 Climbing Edmonton Center
Wed 03:07:25 AM 52.8500 -112.5833 117° Southeast 450 518 24,500 1,900 Climbing Edmonton Center
Wed 03:08:25 AM 52.8000 -112.4167 116° Southeast 470 541 26,200 1,650 Climbing Edmonton Center
Wed 03:09:25 AM 52.7333 -112.2000 117° Southeast 480 552 27,800 1,550 Climbing Edmonton Center
Wed 03:10:25 AM 52.6667 -112.0000 119° Southeast 490 564 29,300 1,600 Climbing Edmonton Center
Wed 03:11:25 AM 52.5833 -111.7833 122° Southeast 500 575 31,000 1,650 Climbing Edmonton Center
Wed 03:12:25 AM 52.5333 -111.6167 116° Southeast 500 575 32,600 1,500 Climbing Edmonton Center
Wed 03:13:25 AM 52.4500 -111.3833 120° Southeast 500 575 34,000 1,650 Climbing Edmonton Center
Wed 03:14:25 AM 52.3833 -111.2000 121° Southeast 500 575 35,900 1,450 Climbing Edmonton Center
Wed 03:15:25 AM 52.3333 -111.0000 112° Southeast 490 564 36,900 550 Climbing Edmonton Center
Wed 03:16:25 AM 52.2500 -110.8167 127° Southeast 490 564 37,000 50 Climbing Edmonton Center
Wed 03:17:25 AM 52.1833 -110.6167 118° Southeast 490 564 37,000  Level Edmonton Center
Wed 03:18:09 AM 52.1500 -110.5000 115° Southeast 500 575 37,000  Level Winnipeg Center
Wed 03:19:09 AM 52.0833 -110.3167 121° Southeast 500 575 37,000  Level Winnipeg Center
Wed 03:20:09 AM 52.0000 -110.1000 122° Southeast 510 587 37,000  Level Winnipeg Center
Wed 03:21:09 AM 51.9333 -109.9000 118° Southeast 500 575 37,000  Level Winnipeg Center
Wed 03:22:09 AM 51.8667 -109.7000 118° Southeast 500 575 37,000  Level Winnipeg Center
Wed 03:23:09 AM 51.8000 -109.5167 120° Southeast 500 575 37,000  Level Winnipeg Center
Wed 03:24:09 AM 51.7167 -109.3333 126° Southeast 500 575 37,000  Level Winnipeg Center
Wed 03:25:09 AM 51.6500 -109.1500 120° Southeast 490 564 37,000  Level Winnipeg Center
Wed 03:26:09 AM 51.5667 -108.9667 126° Southeast 500 575 37,000  Level Winnipeg Center
Wed 03:27:09 AM 51.5167 -108.7500 110° East 490 564 37,000  Level Winnipeg Center
Wed 03:28:09 AM 51.4500 -108.5667 120° Southeast 500 575 37,000  Level Winnipeg Center
Wed 03:29:09 AM 51.3667 -108.3833 126° Southeast 500 575 37,000  Level Winnipeg Center
Wed 03:30:09 AM 51.3000 -108.1833 118° Southeast 500 575 37,000 50 Level Winnipeg Center
Wed 03:31:09 AM 51.2167 -108.0000 126° Southeast 500 575 37,100 50 Climbing Winnipeg Center
Wed 03:32:09 AM 51.1500 -107.8000 118° Southeast 500 575 37,100 -50 Level Winnipeg Center
Wed 03:33:09 AM 51.0667 -107.6167 126° Southeast 500 575 37,000 -50 Descending Winnipeg Center
Wed 03:34:09 AM 51.0000 -107.4333 120° Southeast 500 575 37,000  Level Winnipeg Center
Wed 03:35:09 AM 50.9333 -107.2667 122° Southeast 500 575 37,000  Level Winnipeg Center
Wed 03:36:09 AM 50.8500 -107.0667 123° Southeast 490 564 37,000  Level Winnipeg Center
Wed 03:37:09 AM 50.7833 -106.8833 120° Southeast 500 575 37,000  Level Winnipeg Center
Wed 03:38:09 AM 50.6833 -106.7000 131° Southeast 490 564 37,000  Level Winnipeg Center
Wed 03:39:09 AM 50.6167 -106.5000 118° Southeast 490 564 37,000  Level Winnipeg Center
Wed 03:40:09 AM 50.5500 -106.3333 122° Southeast 490 564 37,000  Level Winnipeg Center
Wed 03:41:09 AM 50.4833 -106.1667 122° Southeast 490 564 37,000  Level Winnipeg Center
Wed 03:42:09 AM 50.4000 -105.9833 125° Southeast 500 575 37,000  Level Winnipeg Center
Wed 03:43:09 AM 50.3333 -105.8167 122° Southeast 490 564 37,000  Level Winnipeg Center
Wed 03:44:09 AM 50.2333 -105.6167 128° Southeast 490 564 37,000  Level Winnipeg Center
Wed 03:45:09 AM 50.1667 -105.4500 122° Southeast 490 564 37,000  Level Winnipeg Center
Wed 03:46:09 AM 50.1000 -105.2667 119° Southeast 490 564 37,000  Level Winnipeg Center
Wed 03:47:09 AM 50.0333 -105.1000 122° Southeast 490 564 37,000  Level Winnipeg Center
Wed 03:48:09 AM 49.9333 -104.9000 128° Southeast 490 564 37,000  Level Winnipeg Center
Wed 03:49:09 AM 49.8667 -104.7333 122° Southeast 490 564 37,000  Level Winnipeg Center
Wed 03:50:09 AM 49.7833 -104.5667 128° Southeast 490 564 37,000  Level Winnipeg Center
Wed 03:51:09 AM 49.7000 -104.4000 128° Southeast 490 564 37,000  Level Winnipeg Center
Wed 03:52:09 AM 49.6333 -104.2333 122° Southeast 490 564 37,000  Level Winnipeg Center
Wed 03:53:09 AM 49.5667 -104.0333 117° Southeast 490 564 37,000  Level Winnipeg Center
Wed 03:54:09 AM 49.4833 -103.8667 128° Southeast 490 564 37,000  Level Winnipeg Center
Wed 03:55:09 AM 49.4000 -103.7000 127° Southeast 490 564 37,000  Level Winnipeg Center
Wed 03:56:09 AM 49.3167 -103.5333 127° Southeast 490 564 37,000  Level Winnipeg Center
Wed 03:57:09 AM 49.2333 -103.3500 125° Southeast 490 564 37,000  Level Winnipeg Center
Wed 03:58:09 AM 49.1667 -103.1833 121° Southeast 490 564 37,000  Level Winnipeg Center
Wed 03:59:09 AM 49.0833 -103.0000 125° Southeast 490 564 37,000  Level Winnipeg Center
Wed 04:00:09 AM 49.0167 -102.8333 121° Southeast 490 564 37,000  Level Winnipeg Center
Wed 04:01:09 AM 48.9500 -102.6667 121° Southeast 490 564 37,000  Level Winnipeg Center
Wed 04:02:09 AM 48.8833 -102.4833 119° Southeast 490 564 37,000  Level Winnipeg Center
Wed 04:03:09 AM 48.8000 -102.3333 130° Southeast 490 564 37,000  Level Winnipeg Center
Wed 04:04:09 AM 48.7167 -102.1333 122° Southeast 490 564 37,000 -58 Level Winnipeg Center
Wed 04:04:52 AM 48.6917 -102.0283 110° East 489 563 36,900  Descending Minneapolis Center
Wed 04:05:52 AM 48.6169 -101.8572 123° Southeast 489 563 37,000 50 Climbing Minneapolis Center
Wed 04:06:53 AM 48.5414 -101.6886 124° Southeast 489 563 37,000 -50 Level Minneapolis Center
Wed 04:07:53 AM 48.4667 -101.5231 124° Southeast 483 556 36,900 -50 Descending Minneapolis Center
Wed 04:08:53 AM 48.3942 -101.3561 123° Southeast 482 555 36,900  Level Minneapolis Center
Wed 04:09:54 AM 48.3192 -101.1925 125° Southeast 480 552 36,900 50 Level Minneapolis Center
Wed 04:10:54 AM 48.2336 -101.0047 124° Southeast 480 552 37,000 50 Climbing Minneapolis Center
Wed 04:11:54 AM 48.1586 -100.8392 124° Southeast 480 552 37,000  Level Minneapolis Center
Wed 04:12:55 AM 48.0828 -100.6733 124° Southeast 481 554 37,000  Level Minneapolis Center
Wed 04:13:55 AM 48.0072 -100.5108 125° Southeast 481 554 37,000  Level Minneapolis Center
Wed 04:14:56 AM 47.9322 -100.3464 124° Southeast 481 554 37,000 -50 Level Minneapolis Center
Wed 04:15:56 AM 47.8564 -100.1861 125° Southeast 480 552 36,900 -50 Descending Minneapolis Center
Wed 04:16:56 AM 47.7806 -100.0228 125° Southeast 480 552 36,900 50 Level Minneapolis Center
Wed 04:17:57 AM 47.7053 -99.8594 124° Southeast 481 554 37,000 49 Climbing Minneapolis Center
Wed 04:18:58 AM 47.6297 -99.6942 124° Southeast 481 554 37,000  Level Minneapolis Center
Wed 04:19:58 AM 47.5519 -99.5311 125° Southeast 484 557 37,000  Level Minneapolis Center
Wed 04:20:58 AM 47.4742 -99.3719 126° Southeast 484 557 37,000 -50 Level Minneapolis Center
Wed 04:21:59 AM 47.3964 -99.2117 126° Southeast 484 557 36,900 -50 Descending Minneapolis Center
Wed 04:22:59 AM 47.3186 -99.0514 126° Southeast 484 557 36,900 50 Level Minneapolis Center
Wed 04:23:59 AM 47.2408 -98.8922 126° Southeast 484 557 37,000 50 Climbing Minneapolis Center
Wed 04:25:00 AM 47.1622 -98.7336 126° Southeast 484 557 37,000  Level Minneapolis Center
Wed 04:26:00 AM 47.0839 -98.5742 126° Southeast 484 557 37,000 -50 Level Minneapolis Center
Wed 04:27:00 AM 47.0058 -98.4178 126° Southeast 484 557 36,900  Descending Minneapolis Center
Wed 04:28:01 AM 46.9275 -98.2608 126° Southeast 484 557 37,000 50 Climbing Minneapolis Center
Wed 04:29:01 AM 46.8486 -98.1061 127° Southeast 482 555 37,000  Level Minneapolis Center
Wed 04:30:01 AM 46.7703 -97.9517 126° Southeast 481 554 37,000  Level Minneapolis Center
Wed 04:31:02 AM 46.6925 -97.7969 126° Southeast 479 551 37,000 -50 Level Minneapolis Center
Wed 04:32:02 AM 46.5989 -97.6150 127° Southeast 473 544 36,900 -50 Descending Minneapolis Center
Wed 04:33:02 AM 46.5197 -97.4617 127° Southeast 474 545 36,900 50 Level Minneapolis Center
Wed 04:34:03 AM 46.4394 -97.3083 127° Southeast 475 547 37,000 50 Climbing Minneapolis Center
Wed 04:35:03 AM 46.3594 -97.1558 127° Southeast 476 548 37,000  Level Minneapolis Center
Wed 04:36:03 AM 46.2792 -97.0033 127° Southeast 478 550 37,000  Level Minneapolis Center
Wed 04:37:04 AM 46.1981 -96.8503 127° Southeast 479 551 37,000  Level Minneapolis Center
Wed 04:38:06 AM 46.1128 -96.6872 127° Southeast 479 551 37,000  Level Minneapolis Center
Wed 04:39:06 AM 46.0306 -96.5339 128° Southeast 481 554 37,000  Level Minneapolis Center
Wed 04:40:06 AM 45.9486 -96.3825 128° Southeast 481 554 37,000  Level Minneapolis Center
Wed 04:41:07 AM 45.8667 -96.2306 128° Southeast 481 554 37,000  Level Minneapolis Center
Wed 04:42:07 AM 45.7853 -96.0814 128° Southeast 479 551 37,000  Level Minneapolis Center
Wed 04:43:07 AM 45.7042 -95.9319 128° Southeast 475 547 37,000  Level Minneapolis Center
Wed 04:44:08 AM 45.6236 -95.7842 128° Southeast 473 544 37,000  Level Minneapolis Center
Wed 04:45:08 AM 45.5419 -95.6375 128° Southeast 473 544 37,000  Level Minneapolis Center
Wed 04:46:09 AM 45.4606 -95.4897 128° Southeast 473 544 37,000  Level Minneapolis Center
Wed 04:47:09 AM 45.3800 -95.3450 128° Southeast 472 543 37,000  Level Minneapolis Center
Wed 04:48:09 AM 45.2972 -95.1967 128° Southeast 473 544 37,000  Level Minneapolis Center
Wed 04:49:10 AM 45.2153 -95.0492 128° Southeast 473 544 37,000  Level Minneapolis Center
Wed 04:50:10 AM 45.1322 -94.9061 129° Southeast 473 544 37,000  Level Minneapolis Center
Wed 04:51:11 AM 45.0508 -94.7594 128° Southeast 473 544 37,000  Level Minneapolis Center
Wed 04:52:11 AM 44.9750 -94.6272 129° Southeast 473 544 37,000  Level Minneapolis Center
Wed 04:53:11 AM 44.8919 -94.4831 129° Southeast 473 544 37,000  Level Minneapolis Center
Wed 04:54:12 AM 44.8092 -94.3394 129° Southeast 473 544 37,000  Level Minneapolis Center
Wed 04:55:12 AM 44.7261 -94.1950 129° Southeast 475 547 37,000  Level Minneapolis Center
Wed 04:56:13 AM 44.6428 -94.0511 129° Southeast 475 547 37,000  Level Minneapolis Center
Wed 04:57:13 AM 44.5411 -93.8797 130° Southeast 476 548 37,000  Level Minneapolis Center
Wed 04:58:13 AM 44.4569 -93.7358 129° Southeast 479 551 37,000  Level Minneapolis Center
Wed 04:59:14 AM 44.3722 -93.5942 130° Southeast 479 551 37,000  Level Minneapolis Center
Wed 05:00:14 AM 44.2878 -93.4517 130° Southeast 479 551 37,000  Level Minneapolis Center
Wed 05:01:15 AM 44.2025 -93.3103 130° Southeast 480 552 37,000  Level Minneapolis Center
Wed 05:02:15 AM 44.1181 -93.1692 130° Southeast 479 551 37,000  Level Minneapolis Center
Wed 05:03:16 AM 44.0336 -93.0289 130° Southeast 479 551 37,000  Level Minneapolis Center
Wed 05:04:16 AM 43.9478 -92.8892 130° Southeast 478 550 37,000  Level Minneapolis Center
Wed 05:05:16 AM 43.8622 -92.7486 130° Southeast 478 550 37,000 -347 Level Minneapolis Center
Wed 05:06:17 AM 43.7728 -92.6008 130° Southeast 478 550 36,300 -843 Descending Minneapolis Center
Wed 05:07:17 AM 43.6892 -92.4639 130° Southeast 474 545 35,300 -645 Descending Minneapolis Center
Wed 05:08:18 AM 43.6053 -92.3272 130° Southeast 469 540 35,000 -149 Descending Minneapolis Center
Wed 05:09:18 AM 43.5206 -92.1925 131° Southeast 469 540 35,000  Level Minneapolis Center
Wed 05:10:19 AM 43.4369 -92.0589 131° Southeast 467 537 35,000  Level Minneapolis Center
Wed 05:11:19 AM 43.3525 -91.9261 131° Southeast 466 536 35,000  Level Minneapolis Center
Wed 05:12:19 AM 43.2686 -91.7908 130° Southeast 466 536 35,000  Level Minneapolis Center
Wed 05:13:20 AM 43.1928 -91.6467 126° Southeast 466 536 35,000  Level Minneapolis Center
Wed 05:14:20 AM 43.1411 -91.4761 112° Southeast 478 550 35,000  Level Minneapolis Center
Wed 05:15:20 AM 43.0992 -91.2994 108° East 481 554 35,000  Level Minneapolis Center
Wed 05:16:21 AM 43.0564 -91.1250 108° East 481 554 35,000  Level Minneapolis Center
Wed 05:17:21 AM 43.0142 -90.9522 108° East 482 555 35,000  Level Minneapolis Center
Wed 05:18:21 AM 42.9708 -90.7786 109° East 482 555 35,000  Level Minneapolis Center
Wed 05:19:22 AM 42.9281 -90.6061 109° East 482 555 35,000  Level Minneapolis Center
Wed 05:20:22 AM 42.8842 -90.4317 109° East 484 557 35,000 -700 Level Minneapolis Center
Wed 05:21:22 AM 42.8361 -90.2411 109° East 485 558 33,600 -2,033 Descending Minneapolis Center
Wed 05:22:23 AM 42.7947 -90.0739 109° East 482 555 30,900 -2,612 Descending Minneapolis Center
Wed 05:23:49 AM 42.7372 -89.8528 109° East 436 502 27,200 -2,712 Descending Chicago Center
Wed 05:24:49 AM 42.7014 -89.7136 109° East 400 460 24,300 -2,700 Descending Chicago Center
Wed 05:25:49 AM 42.6650 -89.5750 110° East 392 451 21,800 -2,529 Descending Chicago Center
Wed 05:26:50 AM 42.6319 -89.4433 109° East 374 430 19,200 -2,628 Descending Chicago Center
Wed 05:27:50 AM 42.5975 -89.3125 110° East 369 425 16,500 -2,529 Descending Chicago Center
Wed 05:28:51 AM 42.5639 -89.1839 109° East 365 420 14,100 -1,736 Descending Chicago Center
Wed 05:29:51 AM 42.5311 -89.0597 110° East 357 411 13,000 -600 Descending Chicago Center
Wed 05:30:51 AM 42.5014 -88.9517 110° East 330 380 12,900 -496 Descending Chicago Center
Wed 05:31:52 AM 42.4658 -88.8194 110° East 315 362 12,000 -744 Descending Chicago Center
Wed 05:32:52 AM 42.4372 -88.7092 109° East 311 358 11,400 -496 Descending Chicago Center
Wed 05:33:53 AM 42.4064 -88.6000 111° Southeast 312 359 11,000 -198 Descending Chicago Center
Wed 05:34:53 AM 42.3733 -88.4939 113° Southeast 309 356 11,000  Level Chicago Center
Wed 05:35:53 AM 42.3403 -88.3858 112° Southeast 310 357 11,000  Level Chicago Center
Wed 05:36:54 AM 42.2836 -88.2939 130° Southeast 305 351 11,000  Level Chicago Center
Wed 05:37:54 AM 42.2422 -88.1922 119° Southeast 311 358 11,000  Level Chicago Center
Wed 05:38:55 AM 42.2078 -88.0883 114° Southeast 306 352 11,000 -347 Level Chicago Center
Wed 05:39:55 AM 42.1728 -87.9831 114° Southeast 307 353 10,300 -1,100 Descending Chicago Center
Wed 05:40:55 AM 42.1411 -87.8778 112° Southeast 304 350 8,800 -1,513 Descending Chicago Center
Wed 05:41:50 AM 42.1167 -87.7833 109° East 288 331 7,400 -1,617 Descending Chicago TRACON
Wed 05:42:50 AM 42.0833 -87.7000 118° Southeast 275 316 5,700 -1,550 Descending Chicago TRACON
Wed 05:43:50 AM 42.0500 -87.6000 114° Southeast 265 305 4,300 -1,050 Descending Chicago TRACON
Wed 05:44:50 AM 42.0000 -87.6000 180° South 224 258 3,600 -645 Descending Chicago TRACON
Wed 05:45:51 AM 41.9833 -87.6667 251° West 201 231 3,000 -397 Descending Chicago TRACON
Wed 05:46:51 AM 41.9667 -87.7333 251° West 187 215 2,800 -500 Descending Chicago TRACON
Wed 05:47:51 AM 41.9667 -87.8000 270° West 137 158 2,000 -700 Descending Chicago TRACON
Wed 05:48:51 AM 41.9667 -87.8333 270° West 117 135 1,400 -600 Descending Chicago TRACON
Wed 05:51:00 AM 41.9667 -87.9000 253° West  Level FlightAware Approximate

Login

Don't have an account? Register now (free) for customized features, flight alerts, and more!